sensor_id;sensor_type;location;lat;lon;timestamp;temperature;humidity
43627;DHT22;29217;52.586;13.442;2022-07-29T00:01:18;15.40;99.90
43627;DHT22;29217;52.586;13.442;2022-07-29T00:03:44;15.40;99.90
43627;DHT22;29217;52.586;13.442;2022-07-29T00:06:09;15.40;99.90
43627;DHT22;29217;52.586;13.442;2022-07-29T00:08:35;15.40;99.90
43627;DHT22;29217;52.586;13.442;2022-07-29T00:11:00;15.30;99.90
43627;DHT22;29217;52.586;13.442;2022-07-29T00:13:26;15.30;99.90
43627;DHT22;29217;52.586;13.442;2022-07-29T00:15:51;15.20;99.90
43627;DHT22;29217;52.586;13.442;2022-07-29T00:18:17;15.30;99.90
43627;DHT22;29217;52.586;13.442;2022-07-29T00:20:42;15.20;99.90
43627;DHT22;29217;52.586;13.442;2022-07-29T00:23:08;15.20;99.90
43627;DHT22;29217;52.586;13.442;2022-07-29T00:25:34;15.20;99.90
43627;DHT22;29217;52.586;13.442;2022-07-29T00:27:59;15.20;99.90
43627;DHT22;29217;52.586;13.442;2022-07-29T00:30:25;15.10;99.90
43627;DHT22;29217;52.586;13.442;2022-07-29T00:32:50;15.10;99.90
43627;DHT22;29217;52.586;13.442;2022-07-29T00:35:16;15.10;99.90
43627;DHT22;29217;52.586;13.442;2022-07-29T00:38:00;15.10;99.90
43627;DHT22;29217;52.586;13.442;2022-07-29T00:40:25;15.00;99.90
43627;DHT22;29217;52.586;13.442;2022-07-29T00:42:51;15.00;99.90
43627;DHT22;29217;52.586;13.442;2022-07-29T00:45:18;15.00;99.90
43627;DHT22;29217;52.586;13.442;2022-07-29T00:47:44;15.00;99.90
43627;DHT22;29217;52.586;13.442;2022-07-29T00:50:11;15.00;99.90
43627;DHT22;29217;52.586;13.442;2022-07-29T00:52:39;15.00;99.90
43627;DHT22;29217;52.586;13.442;2022-07-29T00:55:08;14.90;99.90
43627;DHT22;29217;52.586;13.442;2022-07-29T00:57:35;14.90;99.90
43627;DHT22;29217;52.586;13.442;2022-07-29T01:00:05;14.80;99.90
43627;DHT22;29217;52.586;13.442;2022-07-29T01:02:31;14.80;99.90
43627;DHT22;29217;52.586;13.442;2022-07-29T01:04:57;14.80;99.90
43627;DHT22;29217;52.586;13.442;2022-07-29T01:07:24;14.80;99.90
43627;DHT22;29217;52.586;13.442;2022-07-29T01:09:51;14.80;99.90
43627;DHT22;29217;52.586;13.442;2022-07-29T01:12:23;14.80;99.90
43627;DHT22;29217;52.586;13.442;2022-07-29T01:14:49;14.80;99.90
43627;DHT22;29217;52.586;13.442;2022-07-29T01:17:27;14.70;99.90
43627;DHT22;29217;52.586;13.442;2022-07-29T01:20:07;14.70;99.90
43627;DHT22;29217;52.586;13.442;2022-07-29T01:31:50;14.50;99.90
43627;DHT22;29217;52.586;13.442;2022-07-29T01:34:20;14.50;99.90
43627;DHT22;29217;52.586;13.442;2022-07-29T01:37:01;14.50;99.90
43627;DHT22;29217;52.586;13.442;2022-07-29T01:39:36;14.40;99.90
43627;DHT22;29217;52.586;13.442;2022-07-29T01:45:09;14.30;99.90
43627;DHT22;29217;52.586;13.442;2022-07-29T01:47:49;14.30;99.90
43627;DHT22;29217;52.586;13.442;2022-07-29T01:50:19;14.30;99.90
43627;DHT22;29217;52.586;13.442;2022-07-29T01:52:56;14.20;99.90
43627;DHT22;29217;52.586;13.442;2022-07-29T01:55:26;14.20;99.90
43627;DHT22;29217;52.586;13.442;2022-07-29T01:57:53;14.20;99.90
43627;DHT22;29217;52.586;13.442;2022-07-29T02:00:22;14.10;99.90
43627;DHT22;29217;52.586;13.442;2022-07-29T02:02:48;14.10;99.90
43627;DHT22;29217;52.586;13.442;2022-07-29T02:05:16;14.10;99.90
43627;DHT22;29217;52.586;13.442;2022-07-29T02:07:44;14.10;99.90
43627;DHT22;29217;52.586;13.442;2022-07-29T02:10:12;14.20;99.90
43627;DHT22;29217;52.586;13.442;2022-07-29T02:12:39;14.10;99.90
43627;DHT22;29217;52.586;13.442;2022-07-29T02:15:06;14.20;99.90
43627;DHT22;29217;52.586;13.442;2022-07-29T02:17:37;14.20;99.90
43627;DHT22;29217;52.586;13.442;2022-07-29T02:20:05;14.20;99.90
43627;DHT22;29217;52.586;13.442;2022-07-29T02:22:33;14.20;99.90
43627;DHT22;29217;52.586;13.442;2022-07-29T02:25:01;14.10;99.90
43627;DHT22;29217;52.586;13.442;2022-07-29T02:27:28;14.20;99.90
43627;DHT22;29217;52.586;13.442;2022-07-29T02:29:55;14.20;99.90
43627;DHT22;29217;52.586;13.442;2022-07-29T02:32:24;14.20;99.90
43627;DHT22;29217;52.586;13.442;2022-07-29T02:34:51;14.20;99.90
43627;DHT22;29217;52.586;13.442;2022-07-29T02:37:18;14.20;99.90
43627;DHT22;29217;52.586;13.442;2022-07-29T02:39:44;14.20;99.90
43627;DHT22;29217;52.586;13.442;2022-07-29T02:42:13;14.20;99.90
43627;DHT22;29217;52.586;13.442;2022-07-29T02:44:40;14.10;99.90
43627;DHT22;29217;52.586;13.442;2022-07-29T02:47:22;14.10;99.90
43627;DHT22;29217;52.586;13.442;2022-07-29T02:52:32;14.10;99.90
43627;DHT22;29217;52.586;13.442;2022-07-29T02:55:04;14.10;99.90
43627;DHT22;29217;52.586;13.442;2022-07-29T02:57:39;14.10;99.90
43627;DHT22;29217;52.586;13.442;2022-07-29T03:00:07;14.20;99.90
43627;DHT22;29217;52.586;13.442;2022-07-29T03:02:36;14.10;99.90
43627;DHT22;29217;52.586;13.442;2022-07-29T03:05:04;14.10;99.90
43627;DHT22;29217;52.586;13.442;2022-07-29T03:07:31;14.10;99.90
43627;DHT22;29217;52.586;13.442;2022-07-29T03:09:58;14.10;99.90
43627;DHT22;29217;52.586;13.442;2022-07-29T03:12:25;14.10;99.90
43627;DHT22;29217;52.586;13.442;2022-07-29T03:14:51;14.10;99.90
43627;DHT22;29217;52.586;13.442;2022-07-29T03:17:17;14.20;99.90
43627;DHT22;29217;52.586;13.442;2022-07-29T03:19:43;14.20;99.90
43627;DHT22;29217;52.586;13.442;2022-07-29T03:22:09;14.20;99.90
43627;DHT22;29217;52.586;13.442;2022-07-29T03:24:36;14.30;99.90
43627;DHT22;29217;52.586;13.442;2022-07-29T03:27:04;14.30;99.90
43627;DHT22;29217;52.586;13.442;2022-07-29T03:29:29;14.40;99.90
43627;DHT22;29217;52.586;13.442;2022-07-29T03:31:55;14.30;99.90
43627;DHT22;29217;52.586;13.442;2022-07-29T03:34:21;14.30;99.90
43627;DHT22;29217;52.586;13.442;2022-07-29T03:36:47;14.30;99.90
43627;DHT22;29217;52.586;13.442;2022-07-29T03:39:20;14.30;99.90
43627;DHT22;29217;52.586;13.442;2022-07-29T03:41:49;14.20;99.90
43627;DHT22;29217;52.586;13.442;2022-07-29T03:44:17;14.30;99.90
43627;DHT22;29217;52.586;13.442;2022-07-29T03:46:46;14.20;99.90
43627;DHT22;29217;52.586;13.442;2022-07-29T03:49:14;14.20;99.90
43627;DHT22;29217;52.586;13.442;2022-07-29T03:51:42;14.30;99.90
43627;DHT22;29217;52.586;13.442;2022-07-29T03:54:07;14.20;99.90
43627;DHT22;29217;52.586;13.442;2022-07-29T03:56:39;14.20;99.90
43627;DHT22;29217;52.586;13.442;2022-07-29T03:59:05;14.20;99.90
43627;DHT22;29217;52.586;13.442;2022-07-29T04:01:33;14.20;99.90
43627;DHT22;29217;52.586;13.442;2022-07-29T04:04:00;14.20;99.90
43627;DHT22;29217;52.586;13.442;2022-07-29T04:06:26;14.20;99.90
43627;DHT22;29217;52.586;13.442;2022-07-29T04:08:51;14.20;99.90
43627;DHT22;29217;52.586;13.442;2022-07-29T04:11:17;14.30;99.90
43627;DHT22;29217;52.586;13.442;2022-07-29T04:13:43;14.30;99.90
43627;DHT22;29217;52.586;13.442;2022-07-29T04:16:08;14.30;99.90
43627;DHT22;29217;52.586;13.442;2022-07-29T04:18:34;14.40;99.90
43627;DHT22;29217;52.586;13.442;2022-07-29T04:20:59;14.40;99.90
43627;DHT22;29217;52.586;13.442;2022-07-29T04:23:29;14.40;99.90
43627;DHT22;29217;52.586;13.442;2022-07-29T04:25:57;14.50;99.90
43627;DHT22;29217;52.586;13.442;2022-07-29T04:28:23;14.50;99.90
43627;DHT22;29217;52.586;13.442;2022-07-29T04:30:48;14.50;99.90
43627;DHT22;29217;52.586;13.442;2022-07-29T04:33:14;14.50;99.90
43627;DHT22;29217;52.586;13.442;2022-07-29T04:35:40;14.60;99.90
43627;DHT22;29217;52.586;13.442;2022-07-29T04:38:06;14.70;99.90
43627;DHT22;29217;52.586;13.442;2022-07-29T04:40:33;14.70;99.90
43627;DHT22;29217;52.586;13.442;2022-07-29T04:42:59;14.70;99.90
43627;DHT22;29217;52.586;13.442;2022-07-29T04:45:26;14.70;99.90
43627;DHT22;29217;52.586;13.442;2022-07-29T04:47:51;14.70;99.90
43627;DHT22;29217;52.586;13.442;2022-07-29T04:50:17;14.70;99.90
43627;DHT22;29217;52.586;13.442;2022-07-29T04:52:43;14.80;99.90
43627;DHT22;29217;52.586;13.442;2022-07-29T04:55:08;14.80;99.90
43627;DHT22;29217;52.586;13.442;2022-07-29T04:57:34;14.80;99.90
43627;DHT22;29217;52.586;13.442;2022-07-29T05:00:00;14.90;99.90
43627;DHT22;29217;52.586;13.442;2022-07-29T05:02:26;14.90;99.90
43627;DHT22;29217;52.586;13.442;2022-07-29T05:04:51;15.00;99.90
43627;DHT22;29217;52.586;13.442;2022-07-29T05:07:17;15.00;99.90
43627;DHT22;29217;52.586;13.442;2022-07-29T05:09:42;15.10;99.90
43627;DHT22;29217;52.586;13.442;2022-07-29T05:12:08;15.10;99.90
43627;DHT22;29217;52.586;13.442;2022-07-29T05:14:34;15.10;99.90
43627;DHT22;29217;52.586;13.442;2022-07-29T05:17:00;15.10;99.90
43627;DHT22;29217;52.586;13.442;2022-07-29T05:19:25;15.20;99.90
43627;DHT22;29217;52.586;13.442;2022-07-29T05:21:51;15.30;99.90
43627;DHT22;29217;52.586;13.442;2022-07-29T05:24:16;15.40;99.90
43627;DHT22;29217;52.586;13.442;2022-07-29T05:26:42;15.40;99.90
43627;DHT22;29217;52.586;13.442;2022-07-29T05:29:08;15.50;99.90
43627;DHT22;29217;52.586;13.442;2022-07-29T05:31:33;15.70;99.90
43627;DHT22;29217;52.586;13.442;2022-07-29T05:33:59;15.90;99.90
43627;DHT22;29217;52.586;13.442;2022-07-29T05:36:25;16.00;99.90
43627;DHT22;29217;52.586;13.442;2022-07-29T05:38:50;16.10;99.90
43627;DHT22;29217;52.586;13.442;2022-07-29T05:41:18;16.20;99.90
43627;DHT22;29217;52.586;13.442;2022-07-29T05:43:43;16.20;99.90
43627;DHT22;29217;52.586;13.442;2022-07-29T05:46:09;16.20;99.90
43627;DHT22;29217;52.586;13.442;2022-07-29T05:48:34;16.20;99.90
43627;DHT22;29217;52.586;13.442;2022-07-29T05:51:00;16.30;99.90
43627;DHT22;29217;52.586;13.442;2022-07-29T05:53:25;16.30;99.90
43627;DHT22;29217;52.586;13.442;2022-07-29T05:55:51;16.30;99.90
43627;DHT22;29217;52.586;13.442;2022-07-29T05:58:17;16.30;99.90
43627;DHT22;29217;52.586;13.442;2022-07-29T06:00:43;16.50;99.90
43627;DHT22;29217;52.586;13.442;2022-07-29T06:03:09;16.50;99.90
43627;DHT22;29217;52.586;13.442;2022-07-29T06:05:34;16.60;99.90
43627;DHT22;29217;52.586;13.442;2022-07-29T06:08:00;16.60;99.90
43627;DHT22;29217;52.586;13.442;2022-07-29T06:10:26;16.70;99.90
43627;DHT22;29217;52.586;13.442;2022-07-29T06:12:52;16.80;99.90
43627;DHT22;29217;52.586;13.442;2022-07-29T06:15:17;16.80;99.90
43627;DHT22;29217;52.586;13.442;2022-07-29T06:17:43;16.90;99.90
43627;DHT22;29217;52.586;13.442;2022-07-29T06:20:09;17.00;99.90
43627;DHT22;29217;52.586;13.442;2022-07-29T06:22:35;17.10;99.90
43627;DHT22;29217;52.586;13.442;2022-07-29T06:25:01;17.20;99.90
43627;DHT22;29217;52.586;13.442;2022-07-29T06:27:27;17.30;99.90
43627;DHT22;29217;52.586;13.442;2022-07-29T06:29:52;17.30;99.90
43627;DHT22;29217;52.586;13.442;2022-07-29T06:32:18;17.40;99.90
43627;DHT22;29217;52.586;13.442;2022-07-29T06:34:44;17.60;99.90
43627;DHT22;29217;52.586;13.442;2022-07-29T06:37:09;17.80;99.90
43627;DHT22;29217;52.586;13.442;2022-07-29T06:39:36;18.00;99.90
43627;DHT22;29217;52.586;13.442;2022-07-29T06:42:03;18.10;99.90
43627;DHT22;29217;52.586;13.442;2022-07-29T06:44:28;18.20;99.90
43627;DHT22;29217;52.586;13.442;2022-07-29T06:46:55;18.20;99.90
43627;DHT22;29217;52.586;13.442;2022-07-29T06:49:21;18.20;99.90
43627;DHT22;29217;52.586;13.442;2022-07-29T06:51:47;18.20;99.90
43627;DHT22;29217;52.586;13.442;2022-07-29T06:54:12;18.30;99.90
43627;DHT22;29217;52.586;13.442;2022-07-29T06:56:38;18.30;99.90
43627;DHT22;29217;52.586;13.442;2022-07-29T06:59:04;18.40;99.90
43627;DHT22;29217;52.586;13.442;2022-07-29T07:01:29;18.40;99.90
43627;DHT22;29217;52.586;13.442;2022-07-29T07:03:55;18.50;99.90
43627;DHT22;29217;52.586;13.442;2022-07-29T07:06:21;18.60;99.90
43627;DHT22;29217;52.586;13.442;2022-07-29T07:08:47;18.70;99.90
43627;DHT22;29217;52.586;13.442;2022-07-29T07:11:12;18.80;99.90
43627;DHT22;29217;52.586;13.442;2022-07-29T07:13:38;18.90;99.90
43627;DHT22;29217;52.586;13.442;2022-07-29T07:16:04;19.10;99.90
43627;DHT22;29217;52.586;13.442;2022-07-29T07:18:30;19.20;99.90
43627;DHT22;29217;52.586;13.442;2022-07-29T07:20:56;19.30;99.90
43627;DHT22;29217;52.586;13.442;2022-07-29T07:23:22;19.50;99.90
43627;DHT22;29217;52.586;13.442;2022-07-29T07:25:47;19.70;99.90
43627;DHT22;29217;52.586;13.442;2022-07-29T07:28:13;19.90;99.90
43627;DHT22;29217;52.586;13.442;2022-07-29T07:30:39;20.10;99.90
43627;DHT22;29217;52.586;13.442;2022-07-29T07:33:05;20.30;99.90
43627;DHT22;29217;52.586;13.442;2022-07-29T07:35:30;20.50;99.90
43627;DHT22;29217;52.586;13.442;2022-07-29T07:37:56;20.60;99.90
43627;DHT22;29217;52.586;13.442;2022-07-29T07:40:23;20.70;99.90
43627;DHT22;29217;52.586;13.442;2022-07-29T07:42:49;20.90;99.90
43627;DHT22;29217;52.586;13.442;2022-07-29T07:45:15;21.00;99.90
43627;DHT22;29217;52.586;13.442;2022-07-29T07:47:40;21.10;99.90
43627;DHT22;29217;52.586;13.442;2022-07-29T07:50:08;21.30;99.90
43627;DHT22;29217;52.586;13.442;2022-07-29T07:52:34;21.50;99.90
43627;DHT22;29217;52.586;13.442;2022-07-29T07:55:00;21.80;99.90
43627;DHT22;29217;52.586;13.442;2022-07-29T07:57:26;22.00;99.90
43627;DHT22;29217;52.586;13.442;2022-07-29T07:59:52;22.20;99.90
43627;DHT22;29217;52.586;13.442;2022-07-29T08:02:17;22.30;99.90
43627;DHT22;29217;52.586;13.442;2022-07-29T08:04:43;22.40;99.90
43627;DHT22;29217;52.586;13.442;2022-07-29T08:07:08;22.40;99.90
43627;DHT22;29217;52.586;13.442;2022-07-29T08:09:35;22.60;99.90
43627;DHT22;29217;52.586;13.442;2022-07-29T08:12:00;22.80;99.90
43627;DHT22;29217;52.586;13.442;2022-07-29T08:14:30;22.90;99.90
43627;DHT22;29217;52.586;13.442;2022-07-29T08:16:55;23.10;99.90
43627;DHT22;29217;52.586;13.442;2022-07-29T08:19:21;23.30;99.90
43627;DHT22;29217;52.586;13.442;2022-07-29T08:21:47;23.40;99.90
43627;DHT22;29217;52.586;13.442;2022-07-29T08:24:13;23.40;99.90
43627;DHT22;29217;52.586;13.442;2022-07-29T08:26:57;23.50;99.90
43627;DHT22;29217;52.586;13.442;2022-07-29T08:29:22;23.70;99.90
43627;DHT22;29217;52.586;13.442;2022-07-29T08:31:48;23.70;99.90
43627;DHT22;29217;52.586;13.442;2022-07-29T08:34:14;23.80;99.90
43627;DHT22;29217;52.586;13.442;2022-07-29T08:36:40;23.80;99.90
43627;DHT22;29217;52.586;13.442;2022-07-29T08:39:05;23.80;99.90
43627;DHT22;29217;52.586;13.442;2022-07-29T08:41:31;23.90;99.90
43627;DHT22;29217;52.586;13.442;2022-07-29T08:43:57;24.10;99.90
43627;DHT22;29217;52.586;13.442;2022-07-29T08:46:23;24.20;99.90
43627;DHT22;29217;52.586;13.442;2022-07-29T08:48:49;24.30;99.90
43627;DHT22;29217;52.586;13.442;2022-07-29T08:51:17;24.30;99.90
43627;DHT22;29217;52.586;13.442;2022-07-29T08:53:44;24.40;99.90
43627;DHT22;29217;52.586;13.442;2022-07-29T08:56:15;24.50;99.90
43627;DHT22;29217;52.586;13.442;2022-07-29T08:58:45;24.40;99.90
43627;DHT22;29217;52.586;13.442;2022-07-29T09:01:12;24.50;99.90
43627;DHT22;29217;52.586;13.442;2022-07-29T09:03:40;24.60;99.90
43627;DHT22;29217;52.586;13.442;2022-07-29T09:06:06;24.60;99.90
43627;DHT22;29217;52.586;13.442;2022-07-29T09:08:32;24.60;99.90
43627;DHT22;29217;52.586;13.442;2022-07-29T09:10:58;24.40;99.90
43627;DHT22;29217;52.586;13.442;2022-07-29T09:13:25;24.30;99.90
43627;DHT22;29217;52.586;13.442;2022-07-29T09:15:51;24.20;99.90
43627;DHT22;29217;52.586;13.442;2022-07-29T09:21:02;24.30;99.90
43627;DHT22;29217;52.586;13.442;2022-07-29T09:26:34;24.50;99.90
43627;DHT22;29217;52.586;13.442;2022-07-29T09:29:01;24.70;99.90
43627;DHT22;29217;52.586;13.442;2022-07-29T09:31:34;25.00;99.90
43627;DHT22;29217;52.586;13.442;2022-07-29T09:34:00;25.20;99.90
43627;DHT22;29217;52.586;13.442;2022-07-29T09:36:26;25.30;99.90
43627;DHT22;29217;52.586;13.442;2022-07-29T09:38:59;25.40;99.90
43627;DHT22;29217;52.586;13.442;2022-07-29T09:41:29;25.60;99.90
43627;DHT22;29217;52.586;13.442;2022-07-29T09:43:56;25.70;99.90
43627;DHT22;29217;52.586;13.442;2022-07-29T09:46:22;25.60;99.90
43627;DHT22;29217;52.586;13.442;2022-07-29T09:49:11;25.40;99.90
43627;DHT22;29217;52.586;13.442;2022-07-29T09:51:38;25.40;99.90
43627;DHT22;29217;52.586;13.442;2022-07-29T09:54:23;25.50;99.90
43627;DHT22;29217;52.586;13.442;2022-07-29T09:56:49;25.50;99.90
43627;DHT22;29217;52.586;13.442;2022-07-29T09:59:15;25.50;99.90
43627;DHT22;29217;52.586;13.442;2022-07-29T10:01:41;25.40;99.90
43627;DHT22;29217;52.586;13.442;2022-07-29T10:04:06;25.40;99.90
43627;DHT22;29217;52.586;13.442;2022-07-29T10:06:32;25.40;99.90
43627;DHT22;29217;52.586;13.442;2022-07-29T10:09:10;25.30;99.90
43627;DHT22;29217;52.586;13.442;2022-07-29T10:11:36;25.30;99.90
43627;DHT22;29217;52.586;13.442;2022-07-29T10:14:03;25.40;99.90
43627;DHT22;29217;52.586;13.442;2022-07-29T10:16:29;25.40;99.90
43627;DHT22;29217;52.586;13.442;2022-07-29T10:18:59;25.60;99.90
43627;DHT22;29217;52.586;13.442;2022-07-29T10:21:27;25.90;99.90
43627;DHT22;29217;52.586;13.442;2022-07-29T10:23:53;26.10;99.90
43627;DHT22;29217;52.586;13.442;2022-07-29T10:26:19;26.40;99.90
43627;DHT22;29217;52.586;13.442;2022-07-29T10:28:45;26.60;99.90
43627;DHT22;29217;52.586;13.442;2022-07-29T10:31:19;26.80;99.90
43627;DHT22;29217;52.586;13.442;2022-07-29T10:39:54;26.90;99.90
43627;DHT22;29217;52.586;13.442;2022-07-29T10:42:24;27.00;99.90
43627;DHT22;29217;52.586;13.442;2022-07-29T10:44:51;27.10;99.90
43627;DHT22;29217;52.586;13.442;2022-07-29T10:50:04;27.00;99.90
43627;DHT22;29217;52.586;13.442;2022-07-29T11:00:48;26.50;99.90
43627;DHT22;29217;52.586;13.442;2022-07-29T11:03:43;26.60;99.90
43627;DHT22;29217;52.586;13.442;2022-07-29T11:06:09;26.90;99.90
43627;DHT22;29217;52.586;13.442;2022-07-29T11:08:35;27.00;99.90
43627;DHT22;29217;52.586;13.442;2022-07-29T11:11:30;27.10;99.90
43627;DHT22;29217;52.586;13.442;2022-07-29T11:13:56;27.10;99.90
43627;DHT22;29217;52.586;13.442;2022-07-29T11:16:22;27.00;99.90
43627;DHT22;29217;52.586;13.442;2022-07-29T11:21:42;26.80;99.90
43627;DHT22;29217;52.586;13.442;2022-07-29T11:24:14;26.80;99.90
43627;DHT22;29217;52.586;13.442;2022-07-29T11:26:40;26.70;99.90
43627;DHT22;29217;52.586;13.442;2022-07-29T11:29:18;26.50;99.90
43627;DHT22;29217;52.586;13.442;2022-07-29T11:31:46;26.40;99.90
43627;DHT22;29217;52.586;13.442;2022-07-29T11:39:41;27.90;99.90
43627;DHT22;29217;52.586;13.442;2022-07-29T11:45:15;29.40;99.90
43627;DHT22;29217;52.586;13.442;2022-07-29T11:47:49;29.70;99.90
43627;DHT22;29217;52.586;13.442;2022-07-29T11:50:17;29.70;99.90
43627;DHT22;29217;52.586;13.442;2022-07-29T11:52:45;29.60;99.90
43627;DHT22;29217;52.586;13.442;2022-07-29T11:55:14;30.20;99.90
43627;DHT22;29217;52.586;13.442;2022-07-29T11:57:57;30.90;99.90
43627;DHT22;29217;52.586;13.442;2022-07-29T12:02:55;32.20;99.40
43627;DHT22;29217;52.586;13.442;2022-07-29T12:05:37;32.40;99.50
43627;DHT22;29217;52.586;13.442;2022-07-29T12:08:10;32.80;98.30
43627;DHT22;29217;52.586;13.442;2022-07-29T12:10:36;32.90;98.70
43627;DHT22;29217;52.586;13.442;2022-07-29T12:13:03;32.80;99.20
43627;DHT22;29217;52.586;13.442;2022-07-29T12:15:30;32.90;98.70
43627;DHT22;29217;52.586;13.442;2022-07-29T12:17:55;33.10;98.30
43627;DHT22;29217;52.586;13.442;2022-07-29T12:20:29;33.50;97.60
43627;DHT22;29217;52.586;13.442;2022-07-29T12:22:55;33.60;97.70
43627;DHT22;29217;52.586;13.442;2022-07-29T12:25:23;33.60;97.90
43627;DHT22;29217;52.586;13.442;2022-07-29T12:28:10;33.60;97.50
43627;DHT22;29217;52.586;13.442;2022-07-29T12:30:40;33.30;98.30
43627;DHT22;29217;52.586;13.442;2022-07-29T12:35:38;33.20;98.10
43627;DHT22;29217;52.586;13.442;2022-07-29T12:38:05;33.10;98.20
43627;DHT22;29217;52.586;13.442;2022-07-29T12:40:31;32.90;98.10
43627;DHT22;29217;52.586;13.442;2022-07-29T12:43:10;32.50;98.00
43627;DHT22;29217;52.586;13.442;2022-07-29T12:45:37;32.00;98.20
43627;DHT22;29217;52.586;13.442;2022-07-29T12:48:03;31.80;98.70
43627;DHT22;29217;52.586;13.442;2022-07-29T12:50:29;31.80;98.70
43627;DHT22;29217;52.586;13.442;2022-07-29T12:53:08;31.60;99.50
43627;DHT22;29217;52.586;13.442;2022-07-29T12:55:43;31.60;98.50
43627;DHT22;29217;52.586;13.442;2022-07-29T12:58:09;31.50;99.20
43627;DHT22;29217;52.586;13.442;2022-07-29T13:00:35;31.40;98.80
43627;DHT22;29217;52.586;13.442;2022-07-29T13:03:01;31.40;99.50
43627;DHT22;29217;52.586;13.442;2022-07-29T13:05:44;31.40;99.30
43627;DHT22;29217;52.586;13.442;2022-07-29T13:08:14;31.40;99.50
43627;DHT22;29217;52.586;13.442;2022-07-29T13:10:41;31.40;99.40
43627;DHT22;29217;52.586;13.442;2022-07-29T13:13:13;31.40;98.30
43627;DHT22;29217;52.586;13.442;2022-07-29T13:15:42;31.30;99.20
43627;DHT22;29217;52.586;13.442;2022-07-29T13:20:52;30.90;99.20
43627;DHT22;29217;52.586;13.442;2022-07-29T13:23:18;30.90;98.20
43627;DHT22;29217;52.586;13.442;2022-07-29T13:25:43;31.00;99.80
43627;DHT22;29217;52.586;13.442;2022-07-29T13:28:09;31.20;98.90
43627;DHT22;29217;52.586;13.442;2022-07-29T13:30:35;31.30;99.00
43627;DHT22;29217;52.586;13.442;2022-07-29T13:33:01;31.10;99.70
43627;DHT22;29217;52.586;13.442;2022-07-29T13:35:26;31.10;99.20
43627;DHT22;29217;52.586;13.442;2022-07-29T13:37:54;30.80;98.80
43627;DHT22;29217;52.586;13.442;2022-07-29T13:40:20;30.80;99.40
43627;DHT22;29217;52.586;13.442;2022-07-29T13:42:46;31.10;99.30
43627;DHT22;29217;52.586;13.442;2022-07-29T13:45:11;31.20;98.50
43627;DHT22;29217;52.586;13.442;2022-07-29T13:47:37;31.00;98.00
43627;DHT22;29217;52.586;13.442;2022-07-29T13:50:05;30.60;98.30
43627;DHT22;29217;52.586;13.442;2022-07-29T13:52:31;30.30;98.50
43627;DHT22;29217;52.586;13.442;2022-07-29T13:54:57;29.80;99.50
43627;DHT22;29217;52.586;13.442;2022-07-29T13:57:23;29.70;99.40
43627;DHT22;29217;52.586;13.442;2022-07-29T13:59:48;30.10;99.80
43627;DHT22;29217;52.586;13.442;2022-07-29T14:02:16;30.70;99.40
43627;DHT22;29217;52.586;13.442;2022-07-29T14:04:42;30.70;98.60
43627;DHT22;29217;52.586;13.442;2022-07-29T14:07:07;30.30;98.50
43627;DHT22;29217;52.586;13.442;2022-07-29T14:09:33;30.00;99.90
43627;DHT22;29217;52.586;13.442;2022-07-29T14:11:59;29.80;99.90
43627;DHT22;29217;52.586;13.442;2022-07-29T14:14:24;30.00;99.90
43627;DHT22;29217;52.586;13.442;2022-07-29T14:16:50;30.20;98.80
43627;DHT22;29217;52.586;13.442;2022-07-29T14:19:15;30.00;98.70
43627;DHT22;29217;52.586;13.442;2022-07-29T14:21:41;30.00;99.30
43627;DHT22;29217;52.586;13.442;2022-07-29T14:24:06;30.40;98.80
43627;DHT22;29217;52.586;13.442;2022-07-29T14:26:32;30.60;99.00
43627;DHT22;29217;52.586;13.442;2022-07-29T14:28:58;30.80;98.30
43627;DHT22;29217;52.586;13.442;2022-07-29T14:31:23;30.80;98.50
43627;DHT22;29217;52.586;13.442;2022-07-29T14:33:49;30.80;99.00
43627;DHT22;29217;52.586;13.442;2022-07-29T14:36:14;30.80;98.70
43627;DHT22;29217;52.586;13.442;2022-07-29T14:38:40;30.30;99.10
43627;DHT22;29217;52.586;13.442;2022-07-29T14:41:07;30.00;99.10
43627;DHT22;29217;52.586;13.442;2022-07-29T14:43:33;29.70;99.50
43627;DHT22;29217;52.586;13.442;2022-07-29T14:46:00;29.40;99.40
43627;DHT22;29217;52.586;13.442;2022-07-29T14:48:26;29.00;99.50
43627;DHT22;29217;52.586;13.442;2022-07-29T14:50:51;28.80;99.90
43627;DHT22;29217;52.586;13.442;2022-07-29T14:53:17;28.70;99.70
43627;DHT22;29217;52.586;13.442;2022-07-29T14:55:43;28.70;99.60
43627;DHT22;29217;52.586;13.442;2022-07-29T14:58:09;28.90;99.60
43627;DHT22;29217;52.586;13.442;2022-07-29T15:00:35;28.90;99.90
43627;DHT22;29217;52.586;13.442;2022-07-29T15:03:03;28.90;99.90
43627;DHT22;29217;52.586;13.442;2022-07-29T15:05:31;29.00;99.90
43627;DHT22;29217;52.586;13.442;2022-07-29T15:07:57;29.10;99.90
43627;DHT22;29217;52.586;13.442;2022-07-29T15:10:24;29.30;99.90
43627;DHT22;29217;52.586;13.442;2022-07-29T15:12:51;29.20;99.40
43627;DHT22;29217;52.586;13.442;2022-07-29T15:15:16;28.90;99.90
43627;DHT22;29217;52.586;13.442;2022-07-29T15:17:42;28.80;99.90
43627;DHT22;29217;52.586;13.442;2022-07-29T15:20:08;28.60;99.30
43627;DHT22;29217;52.586;13.442;2022-07-29T15:22:34;28.60;99.90
43627;DHT22;29217;52.586;13.442;2022-07-29T15:24:59;28.70;99.90
43627;DHT22;29217;52.586;13.442;2022-07-29T15:27:25;28.70;99.70
43627;DHT22;29217;52.586;13.442;2022-07-29T15:29:50;28.70;99.90
43627;DHT22;29217;52.586;13.442;2022-07-29T15:32:16;28.60;99.60
43627;DHT22;29217;52.586;13.442;2022-07-29T15:34:41;28.60;99.20
43627;DHT22;29217;52.586;13.442;2022-07-29T15:37:07;28.50;99.90
43627;DHT22;29217;52.586;13.442;2022-07-29T15:39:33;28.50;99.60
43627;DHT22;29217;52.586;13.442;2022-07-29T15:41:58;28.40;99.90
43627;DHT22;29217;52.586;13.442;2022-07-29T15:44:25;28.30;99.90
43627;DHT22;29217;52.586;13.442;2022-07-29T15:46:51;28.20;99.90
43627;DHT22;29217;52.586;13.442;2022-07-29T15:49:29;28.10;99.90
43627;DHT22;29217;52.586;13.442;2022-07-29T15:52:02;28.20;99.90
43627;DHT22;29217;52.586;13.442;2022-07-29T15:54:29;28.10;99.80
43627;DHT22;29217;52.586;13.442;2022-07-29T15:56:55;28.20;99.60
43627;DHT22;29217;52.586;13.442;2022-07-29T15:59:21;28.10;99.90
43627;DHT22;29217;52.586;13.442;2022-07-29T16:01:47;28.10;99.90
43627;DHT22;29217;52.586;13.442;2022-07-29T16:04:13;28.00;99.90
43627;DHT22;29217;52.586;13.442;2022-07-29T16:06:39;27.90;99.90
43627;DHT22;29217;52.586;13.442;2022-07-29T16:09:05;27.90;99.90
43627;DHT22;29217;52.586;13.442;2022-07-29T16:11:30;27.90;99.80
43627;DHT22;29217;52.586;13.442;2022-07-29T16:13:56;27.80;99.90